createdAt,value
2019-03-15T00:01:34.865Z,15.15
2019-03-15T00:04:03.393Z,16.75
2019-03-15T00:06:31.939Z,11.78
2019-03-15T00:09:00.541Z,16.20
2019-03-15T00:11:29.411Z,13.22
2019-03-15T00:13:58.089Z,10.72
2019-03-15T00:16:26.640Z,14.40
2019-03-15T00:18:55.192Z,17.48
2019-03-15T00:21:23.794Z,13.58
2019-03-15T00:23:52.345Z,18.05
2019-03-15T00:26:20.872Z,15.63
2019-03-15T00:28:49.425Z,16.05
2019-03-15T00:31:17.954Z,26.90
2019-03-15T00:33:46.480Z,19.48
2019-03-15T00:36:15.024Z,18.27
2019-03-15T00:38:43.561Z,19.73
2019-03-15T00:41:12.109Z,22.45
2019-03-15T00:43:40.643Z,21.57
2019-03-15T00:46:09.260Z,30.62
2019-03-15T00:48:37.848Z,29.82
2019-03-15T00:51:06.396Z,33.83
2019-03-15T00:53:34.924Z,40.73
2019-03-15T00:56:03.452Z,38.15
2019-03-15T00:58:32.096Z,44.73
2019-03-15T01:01:00.632Z,48.92
2019-03-15T01:03:29.179Z,41.90
2019-03-15T01:05:57.705Z,49.70
2019-03-15T01:08:26.257Z,49.18
2019-03-15T01:10:54.784Z,50.30
2019-03-15T01:13:23.335Z,50.63
2019-03-15T01:15:51.876Z,56.02
2019-03-15T01:18:20.425Z,53.02
2019-03-15T01:20:48.959Z,52.00
2019-03-15T01:23:17.489Z,53.13
2019-03-15T01:25:46.040Z,55.60
2019-03-15T01:28:14.568Z,54.23
2019-03-15T01:30:43.115Z,54.27
2019-03-15T01:33:11.650Z,51.55
2019-03-15T01:35:40.195Z,54.13
2019-03-15T01:38:08.720Z,54.95
2019-03-15T01:40:37.271Z,53.78
2019-03-15T01:43:05.807Z,57.98
2019-03-15T01:45:34.350Z,56.80
2019-03-15T01:48:02.884Z,62.15
2019-03-15T01:50:31.412Z,53.25
2019-03-15T01:52:59.955Z,50.67
2019-03-15T01:55:28.488Z,51.37
2019-03-15T01:57:57.031Z,55.23
2019-03-15T02:00:25.563Z,52.25
2019-03-15T02:02:54.184Z,49.53
2019-03-15T02:05:22.722Z,51.95
2019-03-15T02:07:51.264Z,51.28
2019-03-15T02:10:22.077Z,53.25
2019-03-15T02:12:49.897Z,50.95
2019-03-15T02:15:18.597Z,51.13
2019-03-15T02:17:47.145Z,43.63
2019-03-15T02:20:15.701Z,47.17
2019-03-15T02:22:44.242Z,43.87
2019-03-15T02:25:12.780Z,44.53
2019-03-15T02:27:41.304Z,41.60
2019-03-15T02:30:10.995Z,42.35
2019-03-15T02:32:39.823Z,42.75
2019-03-15T02:35:08.453Z,37.78
2019-03-15T02:37:37.020Z,37.80
2019-03-15T02:40:06.395Z,37.30
2019-03-15T02:42:34.950Z,40.40
2019-03-15T02:45:03.500Z,30.43
2019-03-15T02:47:32.042Z,33.58
2019-03-15T02:50:01.447Z,37.40
2019-03-15T02:52:30.101Z,37.78
2019-03-15T02:54:58.634Z,41.65
2019-03-15T02:57:27.177Z,43.40
2019-03-15T02:59:55.704Z,42.35
2019-03-15T03:02:24.284Z,36.65
2019-03-15T03:04:52.813Z,39.45
2019-03-15T03:07:21.355Z,46.42
2019-03-15T03:09:49.914Z,38.88
2019-03-15T03:12:18.421Z,41.25
2019-03-15T03:14:46.980Z,40.88
2019-03-15T03:17:15.510Z,48.28
2019-03-15T03:19:44.068Z,46.08
2019-03-15T03:22:12.585Z,53.45
2019-03-15T03:24:41.139Z,50.48
2019-03-15T03:27:09.661Z,55.00
2019-03-15T03:29:38.200Z,67.92
2019-03-15T03:32:06.757Z,59.42
2019-03-15T03:34:35.287Z,67.35
2019-03-15T03:37:03.837Z,63.25
2019-03-15T03:39:32.609Z,77.53
2019-03-15T03:42:02.017Z,72.30
2019-03-15T03:44:30.541Z,72.12
2019-03-15T03:46:59.116Z,79.05
2019-03-15T03:49:27.680Z,78.92
2019-03-15T03:51:56.172Z,73.05
2019-03-15T03:54:24.731Z,79.92
2019-03-15T03:56:53.248Z,79.37
2019-03-15T03:59:21.799Z,80.92
2019-03-15T04:01:50.349Z,83.00
2019-03-15T04:04:18.894Z,76.75
2019-03-15T04:06:47.419Z,84.45
2019-03-15T04:09:15.969Z,78.62
2019-03-15T04:11:54.727Z,83.25
2019-03-15T04:14:14.622Z,82.30
2019-03-15T04:16:43.153Z,81.28
2019-03-15T04:19:11.728Z,73.83
2019-03-15T04:21:40.260Z,71.62
2019-03-15T04:24:08.789Z,72.47
2019-03-15T04:26:37.335Z,79.27
2019-03-15T04:29:05.860Z,76.07
2019-03-15T04:31:34.497Z,71.85
2019-03-15T04:34:03.045Z,75.25
2019-03-15T04:36:31.589Z,76.30
2019-03-15T04:39:00.124Z,72.15
2019-03-15T04:41:28.668Z,72.62
2019-03-15T04:43:57.192Z,76.25
2019-03-15T04:46:25.799Z,81.63
2019-03-15T04:48:54.319Z,85.92
2019-03-15T04:51:22.904Z,72.90
2019-03-15T04:53:51.436Z,73.78
2019-03-15T04:56:19.958Z,73.62
2019-03-15T04:58:48.511Z,69.58
2019-03-15T05:01:17.037Z,69.50
2019-03-15T05:03:45.586Z,71.85
2019-03-15T05:06:14.112Z,70.32
2019-03-15T05:08:42.659Z,66.60
2019-03-15T05:11:11.198Z,66.80
2019-03-15T05:13:39.744Z,72.50
2019-03-15T05:16:08.281Z,70.10
2019-03-15T05:18:36.828Z,71.45
2019-03-15T05:21:05.351Z,75.37
2019-03-15T05:23:33.936Z,65.78
2019-03-15T05:26:02.460Z,73.45
2019-03-15T05:28:30.986Z,73.35
2019-03-15T05:30:59.527Z,74.95
2019-03-15T05:33:28.056Z,77.03
2019-03-15T05:35:56.610Z,73.33
2019-03-15T05:38:25.132Z,68.10
2019-03-15T05:40:53.749Z,65.70
2019-03-15T05:43:22.276Z,76.02
2019-03-15T05:45:50.844Z,70.85
2019-03-15T05:48:19.352Z,68.62
2019-03-15T05:50:47.896Z,70.12
2019-03-15T05:53:16.432Z,68.52
2019-03-15T05:55:45.001Z,66.42
2019-03-15T05:58:13.533Z,60.83
2019-03-15T06:00:42.059Z,69.15
2019-03-15T06:03:12.409Z,61.50
2019-03-15T06:05:40.740Z,66.85
2019-03-15T06:08:09.279Z,68.70
2019-03-15T06:10:37.804Z,61.85
2019-03-15T06:13:06.364Z,60.30
2019-03-15T06:15:34.894Z,59.93
2019-03-15T06:18:06.522Z,63.95
2019-03-15T06:20:33.557Z,64.27
2019-03-15T06:23:02.101Z,61.90
2019-03-15T06:25:30.640Z,58.65
2019-03-15T06:27:59.261Z,59.95
2019-03-15T06:30:27.810Z,57.35
2019-03-15T06:32:56.333Z,53.78
2019-03-15T06:35:24.880Z,59.83
2019-03-15T06:37:53.408Z,57.80
2019-03-15T06:40:21.959Z,53.10
2019-03-15T06:42:50.488Z,56.73
2019-03-15T06:45:19.036Z,53.52
2019-03-15T06:47:47.571Z,57.65
2019-03-15T06:50:16.111Z,66.82
2019-03-15T06:52:44.655Z,60.65
2019-03-15T06:55:13.197Z,67.78
2019-03-15T06:57:41.737Z,58.92
2019-03-15T07:00:14.570Z,63.42
2019-03-15T07:02:43.116Z,60.05
2019-03-15T07:05:12.535Z,64.65
2019-03-15T07:07:41.173Z,64.20
2019-03-15T07:10:10.944Z,56.40
2019-03-15T07:12:40.416Z,64.82
2019-03-15T07:15:10.873Z,70.62
2019-03-15T07:17:39.571Z,60.78
2019-03-15T07:20:13.006Z,57.23
2019-03-15T07:22:41.534Z,50.10
2019-03-15T07:25:10.376Z,54.60
2019-03-15T07:27:42.211Z,56.90
2019-03-15T07:30:13.317Z,53.50
2019-03-15T07:32:41.856Z,55.78
2019-03-15T07:35:10.492Z,45.78
2019-03-15T07:37:39.020Z,52.83
2019-03-15T07:40:10.564Z,60.45
2019-03-15T07:42:39.095Z,53.95
2019-03-15T07:45:10.242Z,60.45
2019-03-15T07:47:38.820Z,58.68
2019-03-15T07:50:14.209Z,56.60
2019-03-15T07:52:42.201Z,57.93
2019-03-15T07:55:11.069Z,61.75
2019-03-15T07:57:39.616Z,62.80
2019-03-15T08:00:11.053Z,63.13
2019-03-15T08:02:39.623Z,46.70
2019-03-15T08:05:08.996Z,50.67
2019-03-15T08:07:44.340Z,53.68
2019-03-15T08:10:12.380Z,49.60
2019-03-15T08:12:41.115Z,43.17
2019-03-15T08:15:11.179Z,40.88
2019-03-15T08:17:39.728Z,44.73
2019-03-15T08:20:10.716Z,49.42
2019-03-15T08:22:39.264Z,42.00
2019-03-15T08:25:09.461Z,41.35
2019-03-15T08:27:37.988Z,38.13
2019-03-15T08:30:12.384Z,45.28
2019-03-15T08:32:43.360Z,40.92
2019-03-15T08:35:11.726Z,43.38
2019-03-15T08:37:40.270Z,47.65
2019-03-15T08:40:15.284Z,41.08
2019-03-15T08:42:43.823Z,42.40
2019-03-15T08:45:16.811Z,37.45
2019-03-15T08:47:45.356Z,42.27
2019-03-15T08:50:15.809Z,51.10
2019-03-15T08:52:44.405Z,43.95
2019-03-15T08:55:15.838Z,41.88
2019-03-15T08:57:44.408Z,43.13
2019-03-15T09:00:14.491Z,39.67
2019-03-15T09:02:44.242Z,44.18
2019-03-15T09:05:16.232Z,42.88
2019-03-15T09:10:23.331Z,46.85
2019-03-15T09:12:49.956Z,45.15
2019-03-15T09:15:18.505Z,45.17
2019-03-15T09:17:47.040Z,46.90
2019-03-15T09:20:17.240Z,45.17
2019-03-15T09:22:45.942Z,44.08
2019-03-15T09:25:19.734Z,40.85
2019-03-15T09:27:46.056Z,53.08
2019-03-15T09:30:23.549Z,40.25
2019-03-15T09:32:48.244Z,41.28
2019-03-15T09:35:16.808Z,42.80
2019-03-15T09:37:47.386Z,42.13
2019-03-15T09:40:17.288Z,45.58
2019-03-15T09:42:45.816Z,40.08
2019-03-15T09:45:15.710Z,42.48
2019-03-15T09:47:44.327Z,40.38
2019-03-15T09:50:21.930Z,44.13
2019-03-15T09:52:44.152Z,53.05
2019-03-15T09:55:13.528Z,36.85
2019-03-15T09:57:42.080Z,41.88
2019-03-15T10:00:18.365Z,42.98
2019-03-15T10:02:46.952Z,40.95
2019-03-15T10:05:15.488Z,37.15
2019-03-15T10:07:44.271Z,38.83
2019-03-15T10:10:18.367Z,40.60
2019-03-15T10:12:46.331Z,38.48
2019-03-15T10:15:15.688Z,41.00
2019-03-15T10:17:44.224Z,44.18
2019-03-15T10:20:13.507Z,37.95
2019-03-15T10:22:42.047Z,41.73
2019-03-15T10:25:14.492Z,41.80
2019-03-15T10:27:43.015Z,37.65
2019-03-15T10:30:13.992Z,38.28
2019-03-15T10:32:42.529Z,38.48
2019-03-15T10:35:11.068Z,38.63
2019-03-15T10:37:39.617Z,36.88
2019-03-15T10:40:11.351Z,37.98
2019-03-15T10:42:39.904Z,37.73
2019-03-15T10:45:09.880Z,38.65
2019-03-15T10:47:38.442Z,38.28
2019-03-15T10:50:10.293Z,41.25
2019-03-15T10:52:38.844Z,39.13
2019-03-15T10:55:08.520Z,36.83
2019-03-15T10:57:37.076Z,38.63
2019-03-15T11:00:11.439Z,34.80
2019-03-15T11:02:40.019Z,40.08
2019-03-15T11:05:10.149Z,42.62
2019-03-15T11:07:38.708Z,38.85
2019-03-15T11:10:09.903Z,37.83
2019-03-15T11:12:38.467Z,38.57
2019-03-15T11:15:09.598Z,37.05
2019-03-15T11:17:38.173Z,36.10
2019-03-15T11:20:08.919Z,37.65
2019-03-15T11:22:37.479Z,39.35
2019-03-15T11:25:08.015Z,34.25
2019-03-15T11:27:36.586Z,34.85
2019-03-15T11:30:10.888Z,37.33
2019-03-15T11:32:39.462Z,39.05
2019-03-15T11:35:09.023Z,36.35
2019-03-15T11:37:37.603Z,38.60
2019-03-15T11:40:19.134Z,36.80
2019-03-15T11:42:49.855Z,42.13
2019-03-15T11:45:18.543Z,35.60
2019-03-15T11:48:02.516Z,36.80
2019-03-15T11:50:18.525Z,40.95
2019-03-15T11:52:47.114Z,36.30
2019-03-15T11:55:15.687Z,33.92
2019-03-15T11:57:44.290Z,41.90
2019-03-15T12:00:17.847Z,37.83
2019-03-15T12:02:46.492Z,39.53
2019-03-15T12:05:15.155Z,36.63
2019-03-15T12:07:43.782Z,40.20
2019-03-15T12:10:16.445Z,48.38
2019-03-15T12:12:45.015Z,38.13
2019-03-15T12:15:14.788Z,36.80
2019-03-15T12:17:43.433Z,40.88
2019-03-15T12:20:12.680Z,40.00
2019-03-15T12:22:41.251Z,39.65
2019-03-15T12:25:10.455Z,38.78
2019-03-15T12:27:39.058Z,41.95
2019-03-15T12:30:14.877Z,40.03
2019-03-15T12:32:43.465Z,41.13
2019-03-15T12:35:13.062Z,39.27
2019-03-15T12:37:41.660Z,39.48
2019-03-15T12:40:14.153Z,36.13
2019-03-15T12:42:42.756Z,37.83
2019-03-15T12:45:13.421Z,35.52
2019-03-15T12:47:42.010Z,40.23
2019-03-15T12:50:12.944Z,37.53
2019-03-15T12:52:47.755Z,42.88
2019-03-15T12:55:12.759Z,35.90
2019-03-15T12:57:41.342Z,40.52
2019-03-15T13:00:22.221Z,36.63
2019-03-15T13:02:50.798Z,38.45
2019-03-15T13:05:19.375Z,38.90
2019-03-15T13:07:47.970Z,38.60
2019-03-15T13:10:20.606Z,39.27
2019-03-15T13:12:49.262Z,35.73
2019-03-15T13:15:17.844Z,42.48
2019-03-15T13:17:46.405Z,38.38
2019-03-15T13:20:18.072Z,36.23
2019-03-15T13:22:46.659Z,34.92
2019-03-15T13:25:15.221Z,39.55
2019-03-15T13:27:43.811Z,40.65
2019-03-15T13:30:16.340Z,33.83
2019-03-15T13:32:44.918Z,38.53
2019-03-15T13:35:13.491Z,35.50
2019-03-15T13:37:43.179Z,33.95
2019-03-15T13:40:16.950Z,36.53
2019-03-15T13:42:45.538Z,36.23
2019-03-15T13:45:14.948Z,31.15
2019-03-15T13:47:43.503Z,30.35
2019-03-15T13:50:15.386Z,26.30
2019-03-15T13:52:44.003Z,25.92
2019-03-15T13:55:12.598Z,26.50
2019-03-15T13:57:41.160Z,24.15
2019-03-15T14:00:18.046Z,23.45
2019-03-15T14:02:46.621Z,27.87
2019-03-15T14:05:16.838Z,29.98
2019-03-15T14:07:45.418Z,23.85
2019-03-15T14:10:15.103Z,27.93
2019-03-15T14:12:43.689Z,27.22
2019-03-15T14:15:17.377Z,24.95
2019-03-15T14:17:46.030Z,21.40
2019-03-15T14:20:14.596Z,24.50
2019-03-15T14:22:43.184Z,23.65
2019-03-15T14:25:23.402Z,25.65
2019-03-15T14:27:52.083Z,24.52
2019-03-15T14:30:20.639Z,21.82
2019-03-15T14:32:49.332Z,22.58
2019-03-15T14:35:17.923Z,22.87
2019-03-15T14:37:46.710Z,21.93
2019-03-15T14:40:15.266Z,26.40
2019-03-15T14:42:44.045Z,23.70
2019-03-15T14:45:16.008Z,22.17
2019-03-15T14:50:17.112Z,22.20
2019-03-15T14:52:45.664Z,21.23
2019-03-15T14:55:15.607Z,18.70
2019-03-15T14:57:51.831Z,30.68
2019-03-15T15:00:16.644Z,32.05
2019-03-15T15:02:45.214Z,29.25
2019-03-15T15:05:13.801Z,29.18
2019-03-15T15:07:42.375Z,32.65
2019-03-15T15:10:16.041Z,28.07
2019-03-15T15:12:44.608Z,26.97
2019-03-15T15:15:17.727Z,30.50
2019-03-15T15:17:46.390Z,28.75
2019-03-15T15:20:14.961Z,25.90
2019-03-15T15:22:43.552Z,27.73
2019-03-15T15:25:13.263Z,26.00
2019-03-15T15:27:41.930Z,27.32
2019-03-15T15:30:15.717Z,28.12
2019-03-15T15:32:44.297Z,34.23
2019-03-15T15:35:13.539Z,29.98
2019-03-15T15:37:42.160Z,29.70
2019-03-15T15:40:13.991Z,28.12
2019-03-15T15:42:42.618Z,27.73
2019-03-15T15:45:11.964Z,31.97
2019-03-15T15:47:40.520Z,49.03
2019-03-15T15:50:13.046Z,31.17
2019-03-15T15:52:41.625Z,35.43
2019-03-15T15:55:14.889Z,29.40
2019-03-15T15:57:43.465Z,33.10
2019-03-15T16:00:16.387Z,26.68
2019-03-15T16:02:44.964Z,31.80
2019-03-15T16:05:13.550Z,33.58
2019-03-15T16:07:42.116Z,28.23
2019-03-15T16:10:12.447Z,29.32
2019-03-15T16:12:41.117Z,27.13
2019-03-15T16:15:11.828Z,29.30
2019-03-15T16:17:40.424Z,28.67
2019-03-15T16:20:10.330Z,30.80
2019-03-15T16:22:38.941Z,35.98
2019-03-15T16:25:09.048Z,28.70
2019-03-15T16:27:37.646Z,36.08
2019-03-15T16:30:12.080Z,29.72
2019-03-15T16:32:40.701Z,33.15
2019-03-15T16:35:11.330Z,32.67
2019-03-15T16:37:39.883Z,33.00
2019-03-15T16:40:10.402Z,34.65
2019-03-15T16:42:39.013Z,35.17
2019-03-15T16:45:25.659Z,33.83
2019-03-15T16:47:54.299Z,34.48
2019-03-15T16:50:24.705Z,34.20
2019-03-15T16:52:53.246Z,36.50
2019-03-15T16:55:21.894Z,35.90
2019-03-15T16:57:50.539Z,35.95
2019-03-15T17:00:19.107Z,38.38
2019-03-15T17:02:47.707Z,34.45
2019-03-15T17:05:16.283Z,38.42
2019-03-15T17:07:44.944Z,39.27
2019-03-15T17:10:15.925Z,37.23
2019-03-15T17:12:44.683Z,43.65
2019-03-15T17:15:21.808Z,43.05
2019-03-15T17:17:50.411Z,40.95
2019-03-15T17:20:18.995Z,46.50
2019-03-15T17:22:47.597Z,40.55
2019-03-15T17:25:16.247Z,48.08
2019-03-15T17:27:44.837Z,40.28
2019-03-15T17:30:14.452Z,44.53
2019-03-15T17:32:43.111Z,44.05
2019-03-15T17:35:13.265Z,45.48
2019-03-15T17:37:41.881Z,44.08
2019-03-15T17:40:15.208Z,49.45
2019-03-15T17:42:43.763Z,46.65
2019-03-15T17:45:12.351Z,44.35
2019-03-15T17:47:40.937Z,52.98
2019-03-15T17:50:20.374Z,42.98
2019-03-15T17:52:48.944Z,45.33
2019-03-15T17:55:17.712Z,51.05
2019-03-15T17:57:46.365Z,47.13
2019-03-15T18:00:28.194Z,51.70
2019-03-15T18:02:56.762Z,49.23
2019-03-15T18:05:25.359Z,51.88
2019-03-15T18:07:53.931Z,53.23
2019-03-15T18:10:22.534Z,49.30
2019-03-15T18:12:51.090Z,54.13
2019-03-15T18:15:20.610Z,51.90
2019-03-15T18:17:49.188Z,48.15
2019-03-15T18:20:17.770Z,52.10
2019-03-15T18:22:46.339Z,47.88
2019-03-15T18:25:14.911Z,46.80
2019-03-15T18:27:43.980Z,49.38
2019-03-15T18:30:14.031Z,45.12
2019-03-15T18:32:42.628Z,48.28
2019-03-15T18:35:11.458Z,48.28
2019-03-15T18:37:40.130Z,49.55
2019-03-15T18:40:11.257Z,48.42
2019-03-15T18:42:39.874Z,52.97
2019-03-15T18:45:10.883Z,50.28
2019-03-15T18:47:40.552Z,54.88
2019-03-15T18:50:12.386Z,51.90
2019-03-15T18:52:40.980Z,45.63
2019-03-15T18:55:09.943Z,46.53
2019-03-15T18:57:38.522Z,47.15
2019-03-15T19:00:10.404Z,44.63
2019-03-15T19:02:38.953Z,49.25
2019-03-15T19:05:09.264Z,47.00
2019-03-15T19:07:38.063Z,50.85
2019-03-15T19:10:11.385Z,52.55
2019-03-15T19:12:39.981Z,49.35
2019-03-15T19:15:17.609Z,55.73
2019-03-15T19:17:46.192Z,53.17
2019-03-15T19:20:15.699Z,47.05
2019-03-15T19:22:44.409Z,49.75
2019-03-15T19:25:14.023Z,51.33
2019-03-15T19:27:42.588Z,51.77
2019-03-15T19:30:18.881Z,51.13
2019-03-15T19:32:47.448Z,54.03
2019-03-15T19:35:16.035Z,53.70
2019-03-15T19:37:44.602Z,50.40
2019-03-15T19:40:18.092Z,61.70
2019-03-15T19:42:46.661Z,55.30
2019-03-15T19:45:17.775Z,54.95
2019-03-15T19:47:46.324Z,58.13
2019-03-15T19:50:21.063Z,52.60
2019-03-15T19:52:49.619Z,50.83
2019-03-15T19:55:18.254Z,54.65
2019-03-15T19:57:46.831Z,52.55
2019-03-15T20:00:23.211Z,54.50
2019-03-15T20:02:51.779Z,60.35
2019-03-15T20:05:20.366Z,54.35
2019-03-15T20:07:49.151Z,53.95
2019-03-15T20:10:17.873Z,55.58
2019-03-15T20:12:46.471Z,58.68
2019-03-15T20:15:17.035Z,55.30
2019-03-15T20:17:45.637Z,53.00
2019-03-15T20:20:18.199Z,55.90
2019-03-15T20:22:46.773Z,57.65
2019-03-15T20:25:16.183Z,54.25
2019-03-15T20:27:44.756Z,57.50
2019-03-15T20:30:25.575Z,55.90
2019-03-15T20:32:50.874Z,57.33
2019-03-15T20:35:19.452Z,53.08
2019-03-15T20:37:48.135Z,60.25
2019-03-15T20:40:16.710Z,54.05
2019-03-15T20:42:45.288Z,54.38
2019-03-15T20:45:18.418Z,59.20
2019-03-15T20:47:47.002Z,55.55
2019-03-15T20:50:15.651Z,53.10
2019-03-15T20:52:44.246Z,56.77
2019-03-15T20:55:12.903Z,60.33
2019-03-15T20:57:41.481Z,61.75
2019-03-15T21:00:16.243Z,59.00
2019-03-15T21:02:44.851Z,56.05
2019-03-15T21:05:13.454Z,54.90
2019-03-15T21:07:43.565Z,59.80
2019-03-15T21:10:17.053Z,58.17
2019-03-15T21:12:45.667Z,59.48
2019-03-15T21:15:16.065Z,60.58
2019-03-15T21:17:44.646Z,58.40
2019-03-15T21:20:18.387Z,58.48
2019-03-15T21:22:46.963Z,58.63
2019-03-15T21:25:15.550Z,56.00
2019-03-15T21:27:53.784Z,56.45
2019-03-15T21:30:19.713Z,61.00
2019-03-15T21:32:48.415Z,60.23
2019-03-15T21:35:16.972Z,59.85
2019-03-15T21:37:45.539Z,64.65
2019-03-15T21:40:15.501Z,67.92
2019-03-15T21:42:44.071Z,65.52
2019-03-15T21:45:12.838Z,62.33
2019-03-15T21:47:41.396Z,62.88
2019-03-15T21:50:15.559Z,62.10
2019-03-15T21:52:44.145Z,63.95
2019-03-15T21:55:12.727Z,67.30
2019-03-15T21:57:41.322Z,74.70
2019-03-15T22:00:14.644Z,70.20
2019-03-15T22:02:43.265Z,60.70
2019-03-15T22:05:11.830Z,65.32
2019-03-15T22:07:40.430Z,69.25
2019-03-15T22:10:17.106Z,65.83
2019-03-15T22:12:45.720Z,65.10
2019-03-15T22:15:14.303Z,66.87
2019-03-15T22:17:43.012Z,62.27
2019-03-15T22:20:15.198Z,67.70
2019-03-15T22:22:43.775Z,65.37
2019-03-15T22:25:12.405Z,68.00
2019-03-15T22:27:40.961Z,61.30
2019-03-15T22:30:11.269Z,69.65
2019-03-15T22:32:39.843Z,62.45
2019-03-15T22:35:08.421Z,70.85
2019-03-15T22:37:37.002Z,70.25
2019-03-15T22:40:10.655Z,68.62
2019-03-15T22:42:39.318Z,66.60
2019-03-15T22:45:10.580Z,62.17
2019-03-15T22:47:39.194Z,69.60
2019-03-15T22:50:11.473Z,61.83
2019-03-15T22:52:40.049Z,65.92
2019-03-15T22:55:09.776Z,61.30
2019-03-15T22:57:38.341Z,63.05
2019-03-15T23:00:16.238Z,62.27
2019-03-15T23:02:44.839Z,68.65
2019-03-15T23:05:13.622Z,68.57
2019-03-15T23:07:42.199Z,72.90
2019-03-15T23:10:11.214Z,65.67
2019-03-15T23:12:39.787Z,66.25
2019-03-15T23:15:09.970Z,58.45
2019-03-15T23:17:38.592Z,61.20
2019-03-15T23:20:08.866Z,56.88
2019-03-15T23:22:37.468Z,52.08
2019-03-15T23:25:06.777Z,51.25
2019-03-15T23:27:35.362Z,51.45
2019-03-15T23:30:06.202Z,54.00
2019-03-15T23:32:34.807Z,48.52
2019-03-15T23:35:03.666Z,51.37
2019-03-15T23:37:32.238Z,50.25
2019-03-15T23:40:00.832Z,52.25
2019-03-15T23:42:29.407Z,54.98
2019-03-15T23:44:57.986Z,58.45
2019-03-15T23:47:26.559Z,51.92
2019-03-15T23:49:55.163Z,54.03
2019-03-15T23:52:23.726Z,55.17
2019-03-15T23:54:52.459Z,56.25
2019-03-15T23:57:21.048Z,49.38
2019-03-15T23:59:49.619Z,62.45
